Time;durP1;ratioP1;P1;durP2;ratioP2;P2;SDS_P1;SDS_P2;PMS_P1;PMS_P2;Temp;Humidity;BMP_temperature;BMP_pressure;BME280_temperature;BME280_humidity;BME280_pressure;Samples;Min_cycle;Max_cycle;Signal;HPM_P1;HPM_P2
2022/10/01 00:02:01;;;;;;;0.10;0.10;;;;;;;;;;5046657;28;20251;-77
2022/10/01 00:04:27;;;;;;;0.10;0.10;;;;;;;;;;5043279;28;20204;-77
2022/10/01 00:06:54;;;;;;;0.10;0.10;;;;;;;;;;5046066;28;20267;-76
2022/10/01 00:09:20;;;;;;;0.10;0.10;;;;;;;;;;5043628;28;20208;-77
2022/10/01 00:11:47;;;;;;;0.10;0.10;;;;;;;;;;5044745;28;20584;-77
2022/10/01 00:14:13;;;;;;;0.10;0.10;;;;;;;;;;5044759;28;20280;-77
2022/10/01 00:16:40;;;;;;;0.10;0.10;;;;;;;;;;5044246;28;20240;-77
2022/10/01 00:19:07;;;;;;;0.10;0.10;;;;;;;;;;5045692;28;20331;-76
2022/10/01 00:21:33;;;;;;;0.10;0.10;;;;;;;;;;5043460;28;20243;-75
2022/10/01 00:24:00;;;;;;;0.10;0.10;;;;;;;;;;5046481;28;20294;-76
2022/10/01 00:26:28;;;;;;;0.10;0.10;;;;;;;;;;5042523;28;20258;-76
2022/10/01 00:28:55;;;;;;;0.10;0.10;;;;;;;;;;5046989;28;20432;-77
2022/10/01 00:31:21;;;;;;;0.10;0.10;;;;;;;;;;5041941;28;20240;-77
2022/10/01 00:33:51;;;;;;;0.10;0.10;;;;;;;;;;5047588;28;20212;-77
2022/10/01 00:36:17;;;;;;;0.10;0.10;;;;;;;;;;5041199;28;20421;-77
2022/10/01 00:38:44;;;;;;;5.90;5.63;;;;;;;;;;5048283;28;20433;-77
2022/10/01 00:41:11;;;;;;;0.10;0.10;;;;;;;;;;5040541;28;20539;-76
2022/10/01 00:43:38;;;;;;;0.10;0.10;;;;;;;;;;5048678;28;20210;-76
2022/10/01 00:46:06;;;;;;;0.10;0.10;;;;;;;;;;5039497;28;20251;-76
2022/10/01 00:48:37;;;;;;;0.10;0.10;;;;;;;;;;5049489;28;20303;-75
2022/10/01 00:51:06;;;;;;;0.10;0.10;;;;;;;;;;5039157;28;20255;-76
2022/10/01 00:53:32;;;;;;;0.10;0.10;;;;;;;;;;5049686;28;20340;-75
2022/10/01 00:55:59;;;;;;;0.10;0.10;;;;;;;;;;5038795;28;20389;-76
2022/10/01 00:58:26;;;;;;;0.10;0.10;;;;;;;;;;5050404;28;20575;-76
2022/10/01 01:00:55;;;;;;;0.10;0.10;;;;;;;;;;5037688;28;20248;-77
2022/10/01 01:03:22;;;;;;;0.10;0.10;;;;;;;;;;5050851;28;20205;-77
2022/10/01 01:05:49;;;;;;;0.10;0.10;;;;;;;;;;5037149;28;20240;-76
2022/10/01 01:08:17;;;;;;;0.10;0.10;;;;;;;;;;5051276;28;20204;-77
2022/10/01 01:10:48;;;;;;;0.10;0.10;;;;;;;;;;5036418;28;20236;-77
2022/10/01 01:13:17;;;;;;;0.10;0.10;;;;;;;;;;5051718;28;20212;-77
2022/10/01 01:15:47;;;;;;;0.10;0.10;;;;;;;;;;5036718;28;20244;-77
2022/10/01 01:18:17;;;;;;;0.10;0.10;;;;;;;;;;5051649;28;20458;-76
2022/10/01 01:20:54;;;;;;;0.10;0.10;;;;;;;;;;5036333;28;20240;-76
2022/10/01 01:23:41;;;;;;;0.10;0.10;;;;;;;;;;5050610;28;20411;-76
2022/10/01 01:26:16;;;;;;;0.10;0.10;;;;;;;;;;5032543;28;20622;-77
2022/10/01 01:28:45;;;;;;;0.10;0.10;;;;;;;;;;5051438;28;20208;-77
2022/10/01 01:31:13;;;;;;;0.10;0.10;;;;;;;;;;5043361;28;20235;-77
2022/10/01 01:33:41;;;;;;;0.10;0.10;;;;;;;;;;5051816;28;20551;-77
2022/10/01 01:36:09;;;;;;;0.10;0.10;;;;;;;;;;5042655;28;20339;-77
2022/10/01 01:38:40;;;;;;;0.10;0.10;;;;;;;;;;5052220;28;20205;-76
2022/10/01 01:41:07;;;;;;;0.10;0.10;;;;;;;;;;5042515;28;20243;-77
2022/10/01 01:43:36;;;;;;;0.10;0.10;;;;;;;;;;5052188;28;20272;-75
2022/10/01 01:46:05;;;;;;;0.10;0.10;;;;;;;;;;5042051;28;20428;-76
2022/10/01 01:48:33;;;;;;;0.10;0.10;;;;;;;;;;5052470;28;20301;-76
2022/10/01 01:51:04;;;;;;;0.10;0.10;;;;;;;;;;5041553;28;20267;-76
2022/10/01 01:53:31;;;;;;;0.10;0.10;;;;;;;;;;5052412;28;20351;-75
2022/10/01 01:55:59;;;;;;;0.10;0.10;;;;;;;;;;5040956;28;20240;-75
2022/10/01 01:58:26;;;;;;;0.10;0.10;;;;;;;;;;5052802;28;20484;-75
2022/10/01 02:00:53;;;;;;;0.23;0.23;;;;;;;;;;5040115;28;20247;-75
2022/10/01 02:03:22;;;;;;;0.10;0.10;;;;;;;;;;5053724;28;20212;-76
2022/10/01 02:05:53;;;;;;;0.10;0.10;;;;;;;;;;5039463;28;20247;-75
2022/10/01 02:08:33;;;;;;;0.10;0.10;;;;;;;;;;5053647;28;20212;-76
2022/10/01 02:11:20;;;;;;;0.10;0.10;;;;;;;;;;5040980;28;20430;-76
2022/10/01 02:13:50;;;;;;;0.10;0.10;;;;;;;;;;5043888;28;20236;-76
2022/10/01 02:16:22;;;;;;;0.10;0.10;;;;;;;;;;5043138;28;20252;-76
2022/10/01 02:18:53;;;;;;;0.10;0.10;;;;;;;;;;5049751;28;20228;-76
2022/10/01 02:21:21;;;;;;;0.10;0.10;;;;;;;;;;5043405;28;20240;-76
2022/10/01 02:23:51;;;;;;;0.10;0.10;;;;;;;;;;5049897;28;20246;-76
2022/10/01 02:26:19;;;;;;;0.10;0.10;;;;;;;;;;5043278;28;20243;-76
2022/10/01 02:28:47;;;;;;;0.10;0.10;;;;;;;;;;5049921;28;20215;-78
2022/10/01 02:31:14;;;;;;;0.10;0.10;;;;;;;;;;5042232;28;20249;-69
2022/10/01 02:33:41;;;;;;;0.10;0.10;;;;;;;;;;5050765;28;20511;-71
2022/10/01 02:36:11;;;;;;;0.10;0.10;;;;;;;;;;5041663;28;20243;-70
2022/10/01 02:38:39;;;;;;;0.10;0.10;;;;;;;;;;5050994;28;20247;-69
2022/10/01 02:41:08;;;;;;;0.10;0.10;;;;;;;;;;5041376;28;20251;-69
2022/10/01 02:43:35;;;;;;;0.10;0.10;;;;;;;;;;5051049;28;20500;-69
2022/10/01 02:46:04;;;;;;;0.10;0.10;;;;;;;;;;5040685;28;20273;-70
2022/10/01 02:48:30;;;;;;;0.10;0.10;;;;;;;;;;5051626;28;20216;-70
2022/10/01 02:51:00;;;;;;;0.10;0.10;;;;;;;;;;5040186;28;20240;-69
2022/10/01 02:53:31;;;;;;;0.10;0.10;;;;;;;;;;5051876;28;20205;-78
2022/10/01 02:55:58;;;;;;;0.10;0.10;;;;;;;;;;5040116;28;20255;-77
2022/10/01 02:58:23;;;;;;;0.10;0.10;;;;;;;;;;5052094;28;20234;-78
2022/10/01 03:00:50;;;;;;;0.10;0.10;;;;;;;;;;5038847;28;20240;-78
2022/10/01 03:03:16;;;;;;;0.10;0.10;;;;;;;;;;5052969;28;20389;-78
2022/10/01 03:05:42;;;;;;;0.10;0.10;;;;;;;;;;5037947;28;20240;-77
2022/10/01 03:08:09;;;;;;;4.33;4.13;;;;;;;;;;5053955;28;20208;-77
2022/10/01 03:10:36;;;;;;;0.10;0.10;;;;;;;;;;5036651;28;20244;-77
2022/10/01 03:13:04;;;;;;;0.10;0.10;;;;;;;;;;5054783;28;20216;-76
2022/10/01 03:15:31;;;;;;;0.10;0.10;;;;;;;;;;5035994;28;20301;-77
2022/10/01 03:17:57;;;;;;;0.10;0.10;;;;;;;;;;5055445;28;20358;-77
2022/10/01 03:20:23;;;;;;;0.10;0.10;;;;;;;;;;5035231;28;20249;-76
2022/10/01 03:22:50;;;;;;;0.10;0.10;;;;;;;;;;5056034;28;20204;-76
2022/10/01 03:25:17;;;;;;;0.10;0.10;;;;;;;;;;5034483;28;20258;-76
2022/10/01 03:27:45;;;;;;;0.10;0.10;;;;;;;;;;5056423;28;20211;-78
2022/10/01 03:30:11;;;;;;;0.10;0.10;;;;;;;;;;5033788;28;20208;-76
2022/10/01 03:32:38;;;;;;;0.10;0.10;;;;;;;;;;5057382;28;20213;-77
2022/10/01 03:35:04;;;;;;;0.10;0.10;;;;;;;;;;5040460;28;20369;-76
2022/10/01 03:37:31;;;;;;;0.10;0.10;;;;;;;;;;5058091;28;20523;-78
2022/10/01 03:39:57;;;;;;;0.10;0.10;;;;;;;;;;5042821;28;20209;-78
2022/10/01 03:42:23;;;;;;;0.13;0.13;;;;;;;;;;5047925;28;20434;-77
2022/10/01 03:44:51;;;;;;;0.10;0.10;;;;;;;;;;5042868;28;20205;-77
2022/10/01 03:47:18;;;;;;;0.10;0.10;;;;;;;;;;5047313;28;20253;-76
2022/10/01 03:49:44;;;;;;;0.10;0.10;;;;;;;;;;5042844;28;20388;-76
2022/10/01 03:52:10;;;;;;;0.10;0.10;;;;;;;;;;5047718;28;20244;-76
2022/10/01 03:54:38;;;;;;;4.30;4.10;;;;;;;;;;5042365;28;20211;-77
2022/10/01 03:57:04;;;;;;;0.10;0.10;;;;;;;;;;5046636;28;20299;-77
2022/10/01 03:59:31;;;;;;;0.10;0.10;;;;;;;;;;5043207;28;20423;-78
2022/10/01 04:01:58;;;;;;;0.10;0.10;;;;;;;;;;5046130;28;20250;-76
2022/10/01 04:04:25;;;;;;;0.10;0.10;;;;;;;;;;5043753;28;20219;-77
2022/10/01 04:06:52;;;;;;;0.10;0.10;;;;;;;;;;5045501;28;20264;-77
2022/10/01 04:09:18;;;;;;;0.10;0.10;;;;;;;;;;5044441;28;20208;-78
2022/10/01 04:11:44;;;;;;;0.10;0.10;;;;;;;;;;5044852;28;20446;-78
2022/10/01 04:14:11;;;;;;;0.10;0.10;;;;;;;;;;5044763;28;20205;-77
2022/10/01 04:16:37;;;;;;;0.10;0.10;;;;;;;;;;5044032;28;20294;-77
2022/10/01 04:19:05;;;;;;;0.10;0.10;;;;;;;;;;5045682;28;20512;-77
2022/10/01 04:21:31;;;;;;;0.10;0.10;;;;;;;;;;5043096;28;20264;-76
2022/10/01 04:23:58;;;;;;;0.10;0.10;;;;;;;;;;5046609;28;20235;-76
2022/10/01 04:26:24;;;;;;;0.10;0.10;;;;;;;;;;5042110;28;20254;-77
2022/10/01 04:28:51;;;;;;;0.10;0.10;;;;;;;;;;5047342;28;20205;-77
2022/10/01 04:31:26;;;;;;;0.10;0.10;;;;;;;;;;5041994;28;20288;-77
2022/10/01 04:33:53;;;;;;;0.10;0.10;;;;;;;;;;5042563;28;20210;-78
2022/10/01 04:36:21;;;;;;;0.10;0.10;;;;;;;;;;5041329;28;20240;-77
2022/10/01 04:38:50;;;;;;;0.10;0.10;;;;;;;;;;5048133;28;20215;-77
2022/10/01 04:41:16;;;;;;;0.10;0.10;;;;;;;;;;5040999;28;20347;-77
2022/10/01 04:43:42;;;;;;;0.10;0.10;;;;;;;;;;5048074;28;20204;-77
2022/10/01 04:46:08;;;;;;;0.10;0.10;;;;;;;;;;5040147;28;20551;-77
2022/10/01 04:48:35;;;;;;;0.10;0.10;;;;;;;;;;5049306;28;20205;-76
2022/10/01 04:51:01;;;;;;;0.10;0.10;;;;;;;;;;5038826;28;20397;-77
2022/10/01 04:53:29;;;;;;;0.10;0.10;;;;;;;;;;5050177;28;20205;-77
2022/10/01 04:55:55;;;;;;;0.10;0.10;;;;;;;;;;5038409;28;20279;-76
2022/10/01 04:58:21;;;;;;;0.10;0.10;;;;;;;;;;5050714;28;20231;-77
2022/10/01 05:00:48;;;;;;;0.10;0.10;;;;;;;;;;5040309;28;20243;-77
2022/10/01 05:03:14;;;;;;;0.10;0.10;;;;;;;;;;5055534;28;20204;-76
2022/10/01 05:05:40;;;;;;;0.10;0.10;;;;;;;;;;5040192;28;20258;-77
2022/10/01 05:08:07;;;;;;;0.30;0.30;;;;;;;;;;5056315;28;20208;-77
2022/10/01 05:10:35;;;;;;;0.10;0.10;;;;;;;;;;5038768;28;20258;-76
2022/10/01 05:13:01;;;;;;;0.10;0.10;;;;;;;;;;5057101;28;20431;-76
2022/10/01 05:15:28;;;;;;;0.10;0.10;;;;;;;;;;5038334;28;20423;-77
2022/10/01 05:17:54;;;;;;;0.10;0.10;;;;;;;;;;5057717;28;20208;-78
2022/10/01 05:20:22;;;;;;;0.10;0.10;;;;;;;;;;5036921;28;20207;-78
2022/10/01 05:22:48;;;;;;;0.10;0.10;;;;;;;;;;5058486;28;20208;-77
2022/10/01 05:25:15;;;;;;;0.10;0.10;;;;;;;;;;5036044;28;20534;-78
2022/10/01 05:27:42;;;;;;;0.10;0.10;;;;;;;;;;5059165;28;20219;-77
2022/10/01 05:30:10;;;;;;;0.10;0.10;;;;;;;;;;5035447;28;20212;-73
2022/10/01 05:32:38;;;;;;;0.10;0.10;;;;;;;;;;5059909;28;20204;-77
2022/10/01 05:35:05;;;;;;;0.17;0.17;;;;;;;;;;5045263;28;20241;-76
2022/10/01 05:37:32;;;;;;;0.10;0.10;;;;;;;;;;5033438;28;20207;-75
2022/10/01 05:39:58;;;;;;;0.10;0.10;;;;;;;;;;5044962;28;20200;-76
2022/10/01 05:42:25;;;;;;;0.10;0.10;;;;;;;;;;5050215;28;20343;-77
2022/10/01 05:44:52;;;;;;;0.10;0.10;;;;;;;;;;5045213;28;20450;-76
2022/10/01 05:47:20;;;;;;;0.10;0.10;;;;;;;;;;5050275;28;20243;-76
2022/10/01 05:49:46;;;;;;;0.10;0.10;;;;;;;;;;5044956;28;20531;-78
2022/10/01 05:52:14;;;;;;;0.10;0.10;;;;;;;;;;5050056;28;20259;-76
2022/10/01 05:54:40;;;;;;;0.10;0.10;;;;;;;;;;5044618;28;20551;-70
2022/10/01 05:57:07;;;;;;;0.10;0.10;;;;;;;;;;5049784;28;20256;-69
2022/10/01 05:59:34;;;;;;;0.10;0.10;;;;;;;;;;5044619;28;20231;-69
2022/10/01 06:02:02;;;;;;;0.10;0.10;;;;;;;;;;5049051;28;20575;-70
2022/10/01 06:04:29;;;;;;;0.10;0.10;;;;;;;;;;5044782;28;20205;-69
2022/10/01 06:06:55;;;;;;;0.10;0.10;;;;;;;;;;5048268;28;20347;-70
2022/10/01 06:09:21;;;;;;;0.10;0.10;;;;;;;;;;5045552;28;20199;-70
2022/10/01 06:11:48;;;;;;;0.20;0.20;;;;;;;;;;5046570;28;20248;-69
2022/10/01 06:14:14;;;;;;;0.10;0.10;;;;;;;;;;5046297;28;20247;-69
2022/10/01 06:16:41;;;;;;;0.10;0.10;;;;;;;;;;5046184;28;20429;-70
2022/10/01 06:19:08;;;;;;;0.10;0.10;;;;;;;;;;5047397;28;20329;-70
2022/10/01 06:21:34;;;;;;;0.10;0.10;;;;;;;;;;5045355;28;20242;-70
2022/10/01 06:24:04;;;;;;;0.10;0.10;;;;;;;;;;5048121;28;20231;-69
2022/10/01 06:26:30;;;;;;;0.10;0.10;;;;;;;;;;5045028;28;20235;-69
2022/10/01 06:28:57;;;;;;;0.10;0.10;;;;;;;;;;5048415;28;20204;-69
2022/10/01 06:31:26;;;;;;;0.10;0.10;;;;;;;;;;5043990;28;20525;-69
2022/10/01 06:33:52;;;;;;;0.10;0.10;;;;;;;;;;5048804;28;20393;-69
2022/10/01 06:36:20;;;;;;;0.10;0.10;;;;;;;;;;5043142;28;20249;-70
2022/10/01 06:38:47;;;;;;;0.10;0.10;;;;;;;;;;5049727;28;20543;-70
2022/10/01 06:41:13;;;;;;;0.10;0.10;;;;;;;;;;5042504;28;20232;-70
2022/10/01 06:43:40;;;;;;;0.10;0.10;;;;;;;;;;5050425;28;20211;-70
2022/10/01 06:46:06;;;;;;;0.10;0.10;;;;;;;;;;5041513;28;20303;-69
2022/10/01 06:48:35;;;;;;;0.10;0.10;;;;;;;;;;5051048;28;20222;-71
2022/10/01 06:51:01;;;;;;;0.10;0.10;;;;;;;;;;5040555;28;20302;-70
2022/10/01 06:53:28;;;;;;;0.10;0.10;;;;;;;;;;5051872;28;20211;-73
2022/10/01 06:55:55;;;;;;;0.10;0.10;;;;;;;;;;5039870;28;20243;-73
2022/10/01 06:58:21;;;;;;;0.10;0.10;;;;;;;;;;5052562;28;20235;-73
2022/10/01 07:00:49;;;;;;;0.20;0.20;;;;;;;;;;5038487;28;20248;-72
2022/10/01 07:03:16;;;;;;;0.10;0.10;;;;;;;;;;5052835;28;20279;-73
2022/10/01 07:05:42;;;;;;;0.10;0.10;;;;;;;;;;5038269;28;20260;-73
2022/10/01 07:08:09;;;;;;;0.10;0.10;;;;;;;;;;5054107;28;20396;-72
2022/10/01 07:10:36;;;;;;;0.10;0.10;;;;;;;;;;5036949;28;20239;-73
2022/10/01 07:13:07;;;;;;;0.10;0.10;;;;;;;;;;5054433;28;20228;-73
2022/10/01 07:15:33;;;;;;;0.10;0.10;;;;;;;;;;5036898;28;20293;-73
2022/10/01 07:18:00;;;;;;;0.10;0.10;;;;;;;;;;5054998;28;20388;-73
2022/10/01 07:20:26;;;;;;;0.10;0.10;;;;;;;;;;5035851;28;20571;-73
2022/10/01 07:22:56;;;;;;;0.10;0.10;;;;;;;;;;5054984;28;20237;-73
2022/10/01 07:25:22;;;;;;;0.10;0.10;;;;;;;;;;5035255;28;20210;-73
2022/10/01 07:27:53;;;;;;;0.10;0.10;;;;;;;;;;5055983;28;20208;-72
2022/10/01 07:30:19;;;;;;;0.10;0.10;;;;;;;;;;5034720;28;20205;-71
2022/10/01 07:32:45;;;;;;;0.10;0.10;;;;;;;;;;5056267;28;20205;-73
2022/10/01 07:35:12;;;;;;;0.10;0.10;;;;;;;;;;5033841;28;20292;-72
2022/10/01 07:37:38;;;;;;;0.10;0.10;;;;;;;;;;5057400;28;20243;-73
2022/10/01 07:40:07;;;;;;;0.20;0.20;;;;;;;;;;5040806;28;20205;-75
2022/10/01 07:42:34;;;;;;;0.10;0.10;;;;;;;;;;5057823;28;20236;-72
2022/10/01 07:45:02;;;;;;;0.10;0.10;;;;;;;;;;5042813;28;20224;-72
2022/10/01 07:47:28;;;;;;;0.10;0.10;;;;;;;;;;5047886;28;20264;-73
2022/10/01 07:49:54;;;;;;;0.10;0.10;;;;;;;;;;5042597;28;20220;-72
2022/10/01 07:52:21;;;;;;;0.10;0.10;;;;;;;;;;5047614;28;20235;-73
2022/10/01 07:54:47;;;;;;;0.10;0.10;;;;;;;;;;5042766;28;20212;-72
2022/10/01 07:57:14;;;;;;;0.10;0.10;;;;;;;;;;5047852;28;20243;-73
2022/10/01 07:59:40;;;;;;;0.53;0.53;;;;;;;;;;5042089;28;20232;-73
2022/10/01 08:02:13;;;;;;;0.10;0.10;;;;;;;;;;5047662;28;20428;-72
2022/10/01 08:07:20;;;;;;;0.10;0.10;;;;;;;;;;5032584;28;20246;-72
2022/10/01 08:09:46;;;;;;;0.10;0.10;;;;;;;;;;5042489;28;20205;-73
2022/10/01 08:12:12;;;;;;;0.10;0.10;;;;;;;;;;5047470;28;20248;-74
2022/10/01 08:14:39;;;;;;;0.10;0.10;;;;;;;;;;5042130;28;20215;-74
2022/10/01 08:17:05;;;;;;;0.10;0.10;;;;;;;;;;5047332;28;20247;-74
2022/10/01 08:19:33;;;;;;;0.10;0.10;;;;;;;;;;5042141;28;20213;-73
2022/10/01 08:21:59;;;;;;;0.10;0.10;;;;;;;;;;5046427;28;20243;-74
2022/10/01 08:24:25;;;;;;;0.10;0.10;;;;;;;;;;5043072;28;20205;-73
2022/10/01 08:26:53;;;;;;;0.10;0.10;;;;;;;;;;5045528;28;20249;-74
2022/10/01 08:29:20;;;;;;;0.10;0.10;;;;;;;;;;5043446;28;20214;-73
2022/10/01 08:31:46;;;;;;;0.10;0.10;;;;;;;;;;5044880;28;20247;-73
2022/10/01 08:34:12;;;;;;;0.10;0.10;;;;;;;;;;5047023;28;20427;-72
2022/10/01 08:36:40;;;;;;;1.27;1.27;;;;;;;;;;5047586;28;20244;-73
2022/10/01 08:39:06;;;;;;;0.10;0.10;;;;;;;;;;5049860;28;20208;-73
2022/10/01 08:41:36;;;;;;;0.10;0.10;;;;;;;;;;5046346;28;20239;-75
2022/10/01 08:44:05;;;;;;;0.10;0.10;;;;;;;;;;5050356;28;20212;-72
2022/10/01 08:46:34;;;;;;;0.10;0.10;;;;;;;;;;5046945;28;20231;-73
2022/10/01 08:49:03;;;;;;;0.10;0.10;;;;;;;;;;5049978;28;20209;-73
2022/10/01 08:51:33;;;;;;;0.10;0.10;;;;;;;;;;5045181;28;20248;-73
2022/10/01 08:54:03;;;;;;;0.10;0.10;;;;;;;;;;5050577;28;20445;-74
2022/10/01 08:56:33;;;;;;;0.10;0.10;;;;;;;;;;5046691;28;20241;-73
2022/10/01 08:59:02;;;;;;;0.10;0.10;;;;;;;;;;5049919;28;20337;-74
2022/10/01 09:01:29;;;;;;;0.10;0.10;;;;;;;;;;5045972;28;20246;-73
2022/10/01 09:03:56;;;;;;;0.10;0.10;;;;;;;;;;5050061;28;20208;-73
2022/10/01 09:06:24;;;;;;;0.10;0.10;;;;;;;;;;5045329;28;20241;-74
2022/10/01 09:08:57;;;;;;;0.20;0.20;;;;;;;;;;5050493;28;20213;-73
2022/10/01 09:11:35;;;;;;;0.10;0.10;;;;;;;;;;5045640;28;20248;-73
2022/10/01 09:14:17;;;;;;;0.10;0.10;;;;;;;;;;5049323;28;20516;-73
2022/10/01 09:16:47;;;;;;;0.10;0.10;;;;;;;;;;5047872;28;20240;-72
2022/10/01 09:19:20;;;;;;;0.10;0.10;;;;;;;;;;5047339;28;20205;-72
2022/10/01 09:21:53;;;;;;;0.10;0.10;;;;;;;;;;5048011;28;20454;-73
2022/10/01 09:24:25;;;;;;;0.10;0.10;;;;;;;;;;5046650;28;20193;-73
2022/10/01 09:26:54;;;;;;;0.10;0.10;;;;;;;;;;5048680;28;20301;-73
2022/10/01 09:29:23;;;;;;;0.10;0.10;;;;;;;;;;5046850;28;20207;-73
2022/10/01 09:31:51;;;;;;;0.10;0.10;;;;;;;;;;5048604;28;20485;-73
2022/10/01 09:34:23;;;;;;;0.10;0.10;;;;;;;;;;5046599;28;20337;-73
2022/10/01 09:36:56;;;;;;;0.10;0.10;;;;;;;;;;5048079;28;20281;-73
2022/10/01 09:39:25;;;;;;;0.10;0.10;;;;;;;;;;5046195;28;20338;-73
2022/10/01 09:41:53;;;;;;;0.10;0.10;;;;;;;;;;5048297;28;20312;-73
2022/10/01 09:44:22;;;;;;;0.10;0.10;;;;;;;;;;5046205;28;20215;-74
2022/10/01 09:46:49;;;;;;;0.10;0.10;;;;;;;;;;5047344;28;20247;-74
2022/10/01 09:49:23;;;;;;;0.10;0.10;;;;;;;;;;5046817;28;20240;-73
2022/10/01 09:51:52;;;;;;;0.10;0.10;;;;;;;;;;5047665;28;20244;-73
2022/10/01 09:54:21;;;;;;;0.10;0.10;;;;;;;;;;5046250;28;20215;-73
2022/10/01 09:56:49;;;;;;;0.10;0.10;;;;;;;;;;5047481;28;20246;-74
2022/10/01 09:59:21;;;;;;;0.10;0.10;;;;;;;;;;5046582;28;20232;-73
2022/10/01 10:01:50;;;;;;;0.10;0.10;;;;;;;;;;5047271;28;20302;-73
2022/10/01 10:04:19;;;;;;;0.10;0.10;;;;;;;;;;5046220;28;20238;-73
2022/10/01 10:06:46;;;;;;;0.10;0.10;;;;;;;;;;5047168;28;20247;-73
2022/10/01 10:09:15;;;;;;;0.10;0.10;;;;;;;;;;5046999;28;20205;-73
2022/10/01 10:11:42;;;;;;;0.10;0.10;;;;;;;;;;5046261;28;20246;-73
2022/10/01 10:14:15;;;;;;;0.10;0.10;;;;;;;;;;5046928;28;20212;-73
2022/10/01 10:16:45;;;;;;;0.10;0.10;;;;;;;;;;5046453;28;20260;-73
2022/10/01 10:19:15;;;;;;;0.10;0.10;;;;;;;;;;5046478;28;20239;-73
2022/10/01 10:21:50;;;;;;;0.10;0.10;;;;;;;;;;5045775;28;20436;-72
2022/10/01 10:24:26;;;;;;;0.10;0.10;;;;;;;;;;5046254;28;20423;-74
2022/10/01 10:26:54;;;;;;;0.10;0.10;;;;;;;;;;5047370;28;20625;-74
2022/10/01 10:29:27;;;;;;;0.10;0.10;;;;;;;;;;5045332;28;20505;-73
2022/10/01 10:31:55;;;;;;;0.10;0.10;;;;;;;;;;5047579;28;20451;-73
2022/10/01 10:34:24;;;;;;;0.10;0.10;;;;;;;;;;5044926;28;20300;-73
2022/10/01 10:36:56;;;;;;;0.10;0.10;;;;;;;;;;5046870;28;20244;-73
2022/10/01 10:39:24;;;;;;;0.10;0.10;;;;;;;;;;5044491;28;20193;-73
2022/10/01 10:41:51;;;;;;;0.10;0.10;;;;;;;;;;5046941;28;20271;-74
2022/10/01 10:44:20;;;;;;;0.10;0.10;;;;;;;;;;5045089;28;20205;-72
2022/10/01 10:46:47;;;;;;;0.10;0.10;;;;;;;;;;5045958;28;20287;-73
2022/10/01 10:49:19;;;;;;;0.10;0.10;;;;;;;;;;5046112;28;20434;-73
2022/10/01 10:51:50;;;;;;;0.10;0.10;;;;;;;;;;5046000;28;20281;-73
2022/10/01 10:54:17;;;;;;;0.13;0.13;;;;;;;;;;5045811;28;20189;-73
2022/10/01 10:56:51;;;;;;;0.10;0.10;;;;;;;;;;5045668;28;20602;-73
2022/10/01 10:59:17;;;;;;;0.10;0.10;;;;;;;;;;5044965;28;20223;-73
2022/10/01 11:01:46;;;;;;;0.10;0.10;;;;;;;;;;5045676;28;20244;-73
2022/10/01 11:04:20;;;;;;;0.10;0.10;;;;;;;;;;5045564;28;20295;-74
2022/10/01 11:06:53;;;;;;;0.10;0.10;;;;;;;;;;5045962;28;20551;-72
2022/10/01 11:09:20;;;;;;;0.10;0.10;;;;;;;;;;5044399;28;20350;-74
2022/10/01 11:11:49;;;;;;;0.10;0.10;;;;;;;;;;5045855;28;20244;-73
2022/10/01 11:14:21;;;;;;;0.10;0.10;;;;;;;;;;5044963;28;20201;-73
2022/10/01 11:16:59;;;;;;;0.10;0.10;;;;;;;;;;5046127;28;20327;-74
2022/10/01 11:19:35;;;;;;;0.10;0.10;;;;;;;;;;5043933;28;20201;-74
2022/10/01 11:22:12;;;;;;;0.10;0.10;;;;;;;;;;5047749;28;20255;-74
2022/10/01 11:24:51;;;;;;;0.10;0.10;;;;;;;;;;5043160;28;20385;-73
2022/10/01 11:27:21;;;;;;;0.10;0.10;;;;;;;;;;5048082;28;20247;-73
2022/10/01 11:29:53;;;;;;;0.10;0.10;;;;;;;;;;5043088;28;20511;-73
2022/10/01 11:32:25;;;;;;;0.10;0.10;;;;;;;;;;5048067;28;20241;-73
2022/10/01 11:34:59;;;;;;;0.10;0.10;;;;;;;;;;5042924;28;20358;-73
2022/10/01 11:37:36;;;;;;;0.10;0.10;;;;;;;;;;5047977;28;20242;-74
2022/10/01 11:40:12;;;;;;;0.10;0.10;;;;;;;;;;5042931;28;20423;-74
2022/10/01 11:42:39;;;;;;;0.10;0.10;;;;;;;;;;5039957;28;20225;-73
2022/10/01 11:45:10;;;;;;;0.10;0.10;;;;;;;;;;5035526;28;20231;-75
2022/10/01 11:47:40;;;;;;;0.10;0.10;;;;;;;;;;5057152;28;20224;-72
2022/10/01 11:50:14;;;;;;;0.10;0.10;;;;;;;;;;5032398;28;20247;-74
2022/10/01 11:52:43;;;;;;;0.10;0.10;;;;;;;;;;5056568;28;20280;-74
2022/10/01 12:00:42;;;;;;;0.10;0.10;;;;;;;;;;5003168;28;20554;-73
2022/10/01 12:03:12;;;;;;;0.10;0.10;;;;;;;;;;5053434;28;20300;-72
2022/10/01 12:05:41;;;;;;;0.10;0.10;;;;;;;;;;5036058;28;20254;-72
2022/10/01 12:08:12;;;;;;;0.10;0.10;;;;;;;;;;5052735;28;20209;-73
2022/10/01 12:10:41;;;;;;;0.10;0.10;;;;;;;;;;5036291;28;20283;-71
2022/10/01 12:13:10;;;;;;;0.10;0.10;;;;;;;;;;5053316;28;20236;-73
2022/10/01 12:15:40;;;;;;;0.10;0.10;;;;;;;;;;5036276;28;20251;-73
2022/10/01 12:18:11;;;;;;;0.10;0.10;;;;;;;;;;5052874;28;20205;-73
2022/10/01 12:20:40;;;;;;;0.10;0.10;;;;;;;;;;5036165;28;20416;-73
2022/10/01 12:23:12;;;;;;;0.10;0.10;;;;;;;;;;5053326;28;20252;-72
2022/10/01 12:25:45;;;;;;;0.10;0.10;;;;;;;;;;5035944;28;20240;-73
2022/10/01 12:28:13;;;;;;;0.10;0.10;;;;;;;;;;5052323;28;20233;-73
2022/10/01 12:30:42;;;;;;;0.10;0.10;;;;;;;;;;5036308;28;20240;-72
2022/10/01 12:33:26;;;;;;;0.10;0.10;;;;;;;;;;5052944;28;20420;-73
2022/10/01 12:35:57;;;;;;;0.10;0.10;;;;;;;;;;5038101;28;20300;-73
2022/10/01 12:38:29;;;;;;;0.10;0.10;;;;;;;;;;5050831;28;20210;-72
2022/10/01 12:40:58;;;;;;;0.10;0.10;;;;;;;;;;5038130;28;20232;-71
2022/10/01 12:43:38;;;;;;;0.10;0.10;;;;;;;;;;5050579;28;20230;-72
2022/10/01 12:46:10;;;;;;;0.10;0.10;;;;;;;;;;5039413;28;20584;-71
2022/10/01 12:48:40;;;;;;;0.10;0.10;;;;;;;;;;5049095;28;20199;-71
2022/10/01 12:51:19;;;;;;;0.10;0.10;;;;;;;;;;5039450;28;20236;-71
2022/10/01 12:53:54;;;;;;;0.10;0.10;;;;;;;;;;5047746;28;20202;-71
2022/10/01 12:56:29;;;;;;;0.10;0.10;;;;;;;;;;5041238;28;20268;-72
2022/10/01 12:59:13;;;;;;;0.10;0.10;;;;;;;;;;5046559;28;20419;-71
2022/10/01 13:01:44;;;;;;;0.10;0.10;;;;;;;;;;5039938;28;20248;-72
2022/10/01 13:04:22;;;;;;;0.10;0.10;;;;;;;;;;5044149;28;20281;-71
2022/10/01 13:06:54;;;;;;;0.10;0.10;;;;;;;;;;5044706;28;20242;-71
2022/10/01 13:09:24;;;;;;;0.10;0.10;;;;;;;;;;5043249;28;20218;-72
2022/10/01 13:12:00;;;;;;;0.10;0.10;;;;;;;;;;5044876;28;20252;-71
2022/10/01 13:14:27;;;;;;;0.10;0.10;;;;;;;;;;5042518;28;20224;-73
2022/10/01 13:16:55;;;;;;;0.10;0.10;;;;;;;;;;5045073;28;20241;-72
2022/10/01 13:19:27;;;;;;;0.10;0.10;;;;;;;;;;5042944;28;20206;-72
2022/10/01 13:21:58;;;;;;;0.10;0.10;;;;;;;;;;5048446;28;20245;-72
2022/10/01 13:24:29;;;;;;;0.10;0.10;;;;;;;;;;5046329;28;20241;-72
2022/10/01 13:26:58;;;;;;;0.10;0.10;;;;;;;;;;5049070;28;20240;-72
2022/10/01 13:29:30;;;;;;;0.10;0.10;;;;;;;;;;5045898;28;20431;-73
2022/10/01 13:31:58;;;;;;;0.10;0.10;;;;;;;;;;5049190;28;20246;-72
2022/10/01 13:34:27;;;;;;;0.10;0.10;;;;;;;;;;5045775;28;20202;-71
2022/10/01 13:36:54;;;;;;;0.10;0.10;;;;;;;;;;5048636;28;20297;-72
2022/10/01 13:39:20;;;;;;;0.10;0.10;;;;;;;;;;5046615;28;20398;-73
2022/10/01 13:41:49;;;;;;;0.10;0.10;;;;;;;;;;5047784;28;20268;-73
2022/10/01 13:44:21;;;;;;;0.10;0.10;;;;;;;;;;5047011;28;20281;-72
2022/10/01 13:46:50;;;;;;;0.10;0.10;;;;;;;;;;5047663;28;20569;-73
2022/10/01 13:49:19;;;;;;;0.10;0.10;;;;;;;;;;5046971;28;20493;-73
2022/10/01 13:51:45;;;;;;;0.10;0.10;;;;;;;;;;5047337;28;20272;-73
2022/10/01 13:54:18;;;;;;;0.10;0.10;;;;;;;;;;5046809;28;20512;-73
2022/10/01 13:56:44;;;;;;;0.10;0.10;;;;;;;;;;5047108;28;20241;-72
2022/10/01 13:59:26;;;;;;;0.10;0.10;;;;;;;;;;5046879;28;20416;-72
2022/10/01 14:01:52;;;;;;;0.10;0.10;;;;;;;;;;5047976;28;20242;-73
2022/10/01 14:04:21;;;;;;;0.10;0.10;;;;;;;;;;5046176;28;20332;-72
2022/10/01 14:06:50;;;;;;;0.10;0.10;;;;;;;;;;5047358;28;20281;-72
2022/10/01 14:09:21;;;;;;;0.10;0.10;;;;;;;;;;5046153;28;20233;-72
2022/10/01 14:17:21;;;;;;;0.10;0.10;;;;;;;;;;5049806;28;20339;-73
2022/10/01 14:19:49;;;;;;;0.10;0.10;;;;;;;;;;5044435;28;20206;-73
2022/10/01 14:22:24;;;;;;;0.10;0.10;;;;;;;;;;5049277;28;20494;-72
2022/10/01 14:25:02;;;;;;;0.10;0.10;;;;;;;;;;5044169;28;20278;-73
2022/10/01 14:27:32;;;;;;;0.10;0.10;;;;;;;;;;5049116;28;20524;-73
2022/10/01 14:30:03;;;;;;;0.10;0.10;;;;;;;;;;5044061;28;20205;-74
2022/10/01 14:32:34;;;;;;;0.10;0.10;;;;;;;;;;5032377;28;20557;-73
2022/10/01 14:35:06;;;;;;;0.10;0.10;;;;;;;;;;5044437;28;20207;-72
2022/10/01 14:37:36;;;;;;;0.10;0.10;;;;;;;;;;5032400;28;20205;-73
2022/10/01 14:40:07;;;;;;;0.10;0.10;;;;;;;;;;5044129;28;20451;-73
2022/10/01 14:42:34;;;;;;;0.10;0.10;;;;;;;;;;5032436;28;20424;-75
2022/10/01 14:45:01;;;;;;;0.10;0.10;;;;;;;;;;5043607;28;20247;-73
2022/10/01 14:47:34;;;;;;;0.10;0.10;;;;;;;;;;5049017;28;20264;-73
2022/10/01 14:50:08;;;;;;;0.10;0.10;;;;;;;;;;5043887;28;20204;-73
2022/10/01 14:52:35;;;;;;;0.10;0.10;;;;;;;;;;5032305;28;20224;-73
2022/10/01 14:55:03;;;;;;;0.10;0.10;;;;;;;;;;5043539;28;20207;-73
2022/10/01 14:57:32;;;;;;;0.10;0.10;;;;;;;;;;5032184;28;20209;-74
2022/10/01 14:59:59;;;;;;;0.10;0.10;;;;;;;;;;5043282;28;20307;-73
2022/10/01 15:02:28;;;;;;;0.10;0.10;;;;;;;;;;5048730;28;20243;-74
2022/10/01 15:04:55;;;;;;;0.10;0.10;;;;;;;;;;5043291;28;20236;-73
2022/10/01 15:07:22;;;;;;;0.10;0.10;;;;;;;;;;5048538;28;20239;-72